createdAt,value
2022-08-16T00:02:00.033Z,92309.16
2022-08-16T00:04:31.244Z,92305.34
2022-08-16T00:07:01.606Z,92301.22
2022-08-16T00:09:33.421Z,92307.16
2022-08-16T00:12:07.619Z,92304.53
2022-08-16T00:14:38.562Z,92299.75
2022-08-16T00:17:18.533Z,92299.88
2022-08-16T00:19:53.765Z,92316.81
2022-08-16T00:22:25.686Z,92313.66
2022-08-16T00:24:58.594Z,92317.41
2022-08-16T00:27:30.856Z,92316.59
2022-08-16T00:30:19.148Z,92318.28
2022-08-16T00:32:57.115Z,92321.84
2022-08-16T00:35:34.888Z,92328.09
2022-08-16T00:38:40.185Z,92329.22
2022-08-16T00:40:58.475Z,92325.94
2022-08-16T00:43:42.583Z,92328.28
2022-08-16T00:46:34.365Z,92326.09
2022-08-16T00:52:50.467Z,92330.03
2022-08-16T00:55:22.917Z,92329.16
2022-08-16T00:57:59.903Z,92335.72
2022-08-16T01:00:33.928Z,92335.44
2022-08-16T01:03:11.719Z,92338.81
2022-08-16T01:05:44.171Z,92334.47
2022-08-16T01:08:36.249Z,92333.66
2022-08-16T01:11:08.945Z,92335.28
2022-08-16T01:13:41.635Z,92333.00
2022-08-16T01:16:20.083Z,92337.84
2022-08-16T01:18:57.162Z,92326.50
2022-08-16T01:21:39.793Z,92324.66
2022-08-16T01:24:53.722Z,92327.84
2022-08-16T01:27:29.272Z,92324.53
2022-08-16T01:30:04.305Z,92319.56
2022-08-16T01:32:38.992Z,92326.81
2022-08-16T01:35:17.642Z,92327.47
2022-08-16T01:37:54.089Z,92331.13
2022-08-16T01:40:31.687Z,92331.75
2022-08-16T01:43:01.852Z,92335.97
2022-08-16T01:45:39.828Z,92336.94
2022-08-16T01:48:19.619Z,92331.00
2022-08-16T01:51:07.955Z,92340.75
2022-08-16T01:53:40.603Z,92335.50
2022-08-16T01:56:24.748Z,92332.41
2022-08-16T01:58:58.772Z,92332.06
2022-08-16T02:01:29.887Z,92336.31
2022-08-16T02:04:10.868Z,92342.75
2022-08-16T02:06:46.630Z,92334.38
2022-08-16T02:09:18.582Z,92330.09
2022-08-16T02:11:54.106Z,92334.38
2022-08-16T02:14:27.461Z,92333.25
2022-08-16T02:16:58.846Z,92334.44
2022-08-16T02:19:59.305Z,92333.16
2022-08-16T02:22:34.735Z,92334.19
2022-08-16T02:25:14.822Z,92346.13
2022-08-16T02:27:50.889Z,92342.22
2022-08-16T02:30:35.985Z,92345.31
2022-08-16T02:33:15.453Z,92343.03
2022-08-16T02:35:53.854Z,92346.84
2022-08-16T02:38:28.186Z,92339.72
2022-08-16T02:40:59.029Z,92342.13
2022-08-16T02:43:34.062Z,92339.44
2022-08-16T02:46:07.636Z,92343.50
2022-08-16T02:48:49.075Z,92346.25
2022-08-16T02:51:23.420Z,92345.78
2022-08-16T02:53:54.705Z,92345.56
2022-08-16T02:56:32.128Z,92342.66
2022-08-16T02:59:11.615Z,92345.47
2022-08-16T03:01:44.899Z,92344.41
2022-08-16T03:04:41.185Z,92347.19
2022-08-16T03:07:06.440Z,92345.94
2022-08-16T03:09:36.867Z,92349.66
2022-08-16T03:12:08.802Z,92347.19
2022-08-16T03:14:40.789Z,92344.34
2022-08-16T03:17:12.502Z,92354.09
2022-08-16T03:19:47.877Z,92354.69
2022-08-16T03:22:30.902Z,92352.34
2022-08-16T03:25:03.213Z,92362.41
2022-08-16T03:27:34.820Z,92348.84
2022-08-16T03:30:15.974Z,92363.16
2022-08-16T03:32:51.943Z,92363.78
2022-08-16T03:35:32.994Z,92362.63
2022-08-16T03:38:32.587Z,92371.31
2022-08-16T03:40:57.785Z,92375.47
2022-08-16T03:43:50.616Z,92374.19
2022-08-16T03:46:44.894Z,92378.59
2022-08-16T03:49:13.247Z,92372.31
2022-08-16T03:53:43.195Z,92371.47
2022-08-16T03:56:20.047Z,92369.38
2022-08-16T03:58:52.500Z,92377.09
2022-08-16T04:01:24.026Z,92371.69
2022-08-16T04:03:59.702Z,92376.66
2022-08-16T04:06:31.010Z,92368.78
2022-08-16T04:09:02.429Z,92375.22
2022-08-16T04:11:36.708Z,92369.97
2022-08-16T04:14:32.557Z,92381.81
2022-08-16T04:16:58.122Z,92375.09
2022-08-16T04:19:31.709Z,92369.00
2022-08-16T04:22:02.345Z,92370.19
2022-08-16T04:24:40.619Z,92372.66
2022-08-16T04:27:11.022Z,92367.41
2022-08-16T04:29:44.150Z,92369.03
2022-08-16T04:32:16.682Z,92371.91
2022-08-16T04:34:50.126Z,92369.13
2022-08-16T04:37:21.955Z,92359.66
2022-08-16T04:39:55.292Z,92369.13
2022-08-16T04:42:29.823Z,92366.91
2022-08-16T04:45:07.305Z,92376.25
2022-08-16T04:47:37.925Z,92377.91
2022-08-16T04:50:14.522Z,92379.63
2022-08-16T04:52:48.040Z,92386.13
2022-08-16T04:55:31.846Z,92387.81
2022-08-16T04:58:44.781Z,92395.13
2022-08-16T05:01:01.108Z,92403.56
2022-08-16T05:03:32.583Z,92396.03
2022-08-16T05:06:05.204Z,92391.44
2022-08-16T05:08:39.441Z,92399.69
2022-08-16T05:11:20.583Z,92395.84
2022-08-16T05:13:51.914Z,92392.38
2022-08-16T05:16:27.448Z,92389.50
2022-08-16T05:19:03.503Z,92385.47
2022-08-16T05:21:38.388Z,92372.22
2022-08-16T05:24:09.729Z,92371.78
2022-08-16T05:26:43.519Z,92381.75
2022-08-16T05:29:21.467Z,92372.34
2022-08-16T05:31:52.922Z,92375.56
2022-08-16T05:34:23.403Z,92378.38
2022-08-16T05:36:58.686Z,92375.03
2022-08-16T05:39:30.528Z,92381.19
2022-08-16T05:42:05.068Z,92378.19
2022-08-16T05:44:35.683Z,92382.34
2022-08-16T05:47:06.006Z,92378.31
2022-08-16T05:49:39.861Z,92383.06
2022-08-16T05:52:13.485Z,92380.81
2022-08-16T05:55:00.927Z,92376.38
2022-08-16T05:57:34.496Z,92371.38
2022-08-16T06:00:10.481Z,92372.19
2022-08-16T06:02:40.690Z,92364.03
2022-08-16T06:05:11.971Z,92364.63
2022-08-16T06:07:44.702Z,92370.72
2022-08-16T06:10:32.242Z,92370.25
2022-08-16T06:13:04.869Z,92367.69
2022-08-16T06:15:35.365Z,92364.09
2022-08-16T06:18:07.026Z,92353.53
2022-08-16T06:20:37.669Z,92358.94
2022-08-16T06:23:27.806Z,92357.53
2022-08-16T06:26:02.622Z,92347.72
2022-08-16T06:28:39.182Z,92349.38
2022-08-16T06:31:12.333Z,92353.69
2022-08-16T06:33:44.646Z,92355.72
2022-08-16T06:36:17.320Z,92359.41
2022-08-16T06:38:56.085Z,92360.38
2022-08-16T06:41:27.538Z,92359.28
2022-08-16T06:43:59.314Z,92363.13
2022-08-16T06:46:34.647Z,92365.97
2022-08-16T06:49:10.806Z,92362.03
2022-08-16T06:53:41.823Z,92355.28
2022-08-16T06:56:14.206Z,92344.50
2022-08-16T06:58:54.985Z,92349.59
2022-08-16T07:01:44.997Z,92345.22
2022-08-16T07:04:31.649Z,92351.28
2022-08-16T07:07:02.952Z,92350.34
2022-08-16T07:09:34.903Z,92354.06
2022-08-16T07:12:06.105Z,92349.91
2022-08-16T07:14:36.925Z,92344.44
2022-08-16T07:17:11.325Z,92348.19
2022-08-16T07:20:03.214Z,92354.84
2022-08-16T07:22:37.345Z,92352.19
2022-08-16T07:25:25.645Z,92354.69
2022-08-16T07:27:55.849Z,92348.81
2022-08-16T07:30:39.396Z,92347.63
2022-08-16T07:33:20.300Z,92353.41
2022-08-16T07:36:10.384Z,92356.53
2022-08-16T07:38:40.716Z,92363.19
2022-08-16T07:41:13.786Z,92368.59
2022-08-16T07:43:47.494Z,92365.50
2022-08-16T07:46:37.784Z,92368.09
2022-08-16T07:49:11.251Z,92372.59
2022-08-16T07:51:42.446Z,92373.38
2022-08-16T07:54:21.262Z,92374.31
2022-08-16T07:56:53.116Z,92367.34
2022-08-16T07:59:24.971Z,92369.69
2022-08-16T08:02:13.229Z,92371.22
2022-08-16T08:04:51.216Z,92370.03
2022-08-16T08:07:21.585Z,92361.13
2022-08-16T08:09:52.607Z,92355.56
2022-08-16T08:12:43.705Z,92356.63
2022-08-16T08:15:14.826Z,92354.75
2022-08-16T08:17:55.606Z,92354.44
2022-08-16T08:20:33.837Z,92354.19
2022-08-16T08:23:04.993Z,92356.53
2022-08-16T08:25:53.947Z,92358.84
2022-08-16T08:28:26.762Z,92358.66
2022-08-16T08:31:01.655Z,92348.72
2022-08-16T08:33:33.977Z,92347.75
2022-08-16T08:36:08.855Z,92353.28
2022-08-16T08:38:45.188Z,92353.03
2022-08-16T08:41:19.045Z,92350.91
2022-08-16T08:43:51.468Z,92348.31
2022-08-16T08:46:22.566Z,92344.91
2022-08-16T08:48:59.584Z,92349.22
2022-08-16T08:51:36.821Z,92345.16
2022-08-16T08:54:09.738Z,92363.94
2022-08-16T08:56:45.403Z,92364.09
2022-08-16T08:59:20.456Z,92367.63
2022-08-16T09:01:57.208Z,92364.56
2022-08-16T09:04:30.149Z,92360.34
2022-08-16T09:07:01.232Z,92354.03
2022-08-16T09:09:33.610Z,92353.28
2022-08-16T09:12:06.939Z,92356.84
2022-08-16T09:14:49.317Z,92351.63
2022-08-16T09:17:38.275Z,92357.44
2022-08-16T09:20:16.584Z,92359.56
2022-08-16T09:22:51.337Z,92362.16
2022-08-16T09:25:26.357Z,92355.06
2022-08-16T09:28:09.412Z,92362.91
2022-08-16T09:30:44.053Z,92353.25
2022-08-16T09:33:20.056Z,92343.41
2022-08-16T09:35:54.366Z,92346.75
2022-08-16T09:38:31.902Z,92340.94
2022-08-16T09:41:06.482Z,92342.78
2022-08-16T09:43:59.519Z,92341.31
2022-08-16T09:46:45.306Z,92359.81
2022-08-16T09:49:20.313Z,92343.56
2022-08-16T09:53:43.253Z,92340.63
2022-08-16T09:56:26.709Z,92347.47
2022-08-16T09:59:03.591Z,92343.13
2022-08-16T10:01:36.752Z,92346.56
2022-08-16T10:04:32.975Z,92338.66
2022-08-16T10:09:54.080Z,92345.69
2022-08-16T10:12:45.965Z,92335.50
2022-08-16T10:15:21.614Z,92345.75
2022-08-16T10:18:00.196Z,92339.78
2022-08-16T10:20:35.262Z,92347.84
2022-08-16T10:23:08.416Z,92347.44
2022-08-16T10:27:18.631Z,92354.78
2022-08-16T10:28:40.345Z,92351.25
2022-08-16T10:31:16.719Z,92347.00
2022-08-16T10:34:05.162Z,92352.38
2022-08-16T10:36:55.207Z,92358.19
2022-08-16T10:39:25.382Z,92358.75
2022-08-16T10:41:57.105Z,92352.47
2022-08-16T10:44:29.206Z,92358.22
2022-08-16T10:46:59.483Z,92350.31
2022-08-16T10:49:32.709Z,92351.81
2022-08-16T10:52:18.027Z,92353.03
2022-08-16T10:57:41.666Z,92353.38
2022-08-16T11:00:22.525Z,92349.22
2022-08-16T11:02:58.304Z,92350.75
2022-08-16T11:05:59.061Z,92344.25
2022-08-16T11:08:35.916Z,92347.13
2022-08-16T11:11:16.912Z,92347.63
2022-08-16T11:14:11.087Z,92341.63
2022-08-16T11:19:33.597Z,92346.81
2022-08-16T11:22:47.268Z,92344.88
2022-08-16T11:25:59.617Z,92350.03
2022-08-16T11:28:06.164Z,92351.38
2022-08-16T11:30:39.618Z,92350.50
2022-08-16T11:33:11.463Z,92344.28
2022-08-16T11:35:44.097Z,92343.25
2022-08-16T11:38:47.665Z,92343.47
2022-08-16T11:41:07.621Z,92331.91
2022-08-16T11:43:42.105Z,92333.28
2022-08-16T11:46:43.639Z,92334.38
2022-08-16T11:49:13.449Z,92335.00
2022-08-16T11:51:45.902Z,92325.75
2022-08-16T11:54:20.452Z,92331.47
2022-08-16T11:56:57.304Z,92324.88
2022-08-16T11:59:29.696Z,92327.72
2022-08-16T12:02:11.570Z,92327.84
2022-08-16T12:04:52.162Z,92329.00
2022-08-16T12:07:24.940Z,92326.72
2022-08-16T12:09:54.933Z,92326.19
2022-08-16T12:12:28.507Z,92329.41
2022-08-16T12:15:00.071Z,92320.88
2022-08-16T12:17:33.368Z,92321.22
2022-08-16T12:20:07.602Z,92319.66
2022-08-16T12:22:38.463Z,92307.53
2022-08-16T12:25:12.421Z,92308.16
2022-08-16T12:27:43.105Z,92302.47
2022-08-16T12:30:26.464Z,92311.78
2022-08-16T12:33:04.266Z,92301.97
2022-08-16T12:35:38.844Z,92293.50
2022-08-16T12:38:40.767Z,92298.03
2022-08-16T12:41:00.530Z,92301.56
2022-08-16T12:43:31.984Z,92307.19
2022-08-16T12:46:02.291Z,92301.72
2022-08-16T12:48:53.661Z,92294.72
2022-08-16T12:53:42.222Z,92287.63
2022-08-16T12:56:14.102Z,92287.47
2022-08-16T12:58:50.560Z,92278.78
2022-08-16T13:01:25.038Z,92283.50
2022-08-16T13:04:11.428Z,92277.91
2022-08-16T13:06:44.674Z,92265.84
2022-08-16T13:09:23.651Z,92265.88
2022-08-16T13:12:03.489Z,92273.03
2022-08-16T13:14:38.485Z,92277.09
2022-08-16T13:17:18.784Z,92270.78
2022-08-16T13:22:42.839Z,92275.75
2022-08-16T13:25:21.295Z,92275.13
2022-08-16T13:28:02.368Z,92276.53
2022-08-16T13:30:41.075Z,92274.91
2022-08-16T13:33:16.484Z,92272.94
2022-08-16T13:35:56.245Z,92268.16
2022-08-16T13:38:32.677Z,92267.84
2022-08-16T13:41:11.305Z,92268.31
2022-08-16T13:43:43.522Z,92273.84
2022-08-16T13:46:13.706Z,92268.88
2022-08-16T13:48:45.131Z,92270.38
2022-08-16T13:51:17.532Z,92265.31
2022-08-16T13:53:54.506Z,92270.44
2022-08-16T13:56:37.923Z,92274.31
2022-08-16T13:59:19.530Z,92262.28
2022-08-16T14:01:55.079Z,92267.28
2022-08-16T14:04:31.556Z,92269.34
2022-08-16T14:07:03.874Z,92276.94
2022-08-16T14:09:36.885Z,92275.31
2022-08-16T14:12:21.285Z,92271.69
2022-08-16T14:14:56.334Z,92271.78
2022-08-16T14:17:29.866Z,92277.47
2022-08-16T14:20:14.476Z,92274.06
2022-08-16T14:22:52.383Z,92279.09
2022-08-16T14:25:26.831Z,92278.31
2022-08-16T14:27:58.841Z,92278.53
2022-08-16T14:30:29.797Z,92282.16
2022-08-16T14:33:00.494Z,92287.31
2022-08-16T14:35:48.504Z,92284.88
2022-08-16T14:38:23.928Z,92280.09
2022-08-16T14:40:54.959Z,92277.84
2022-08-16T14:43:29.762Z,92279.38
2022-08-16T14:46:01.244Z,92282.41
2022-08-16T14:48:31.949Z,92272.34
2022-08-16T14:51:03.227Z,92277.28
2022-08-16T14:53:33.321Z,92275.16
2022-08-16T14:56:03.415Z,92268.28
2022-08-16T14:58:38.064Z,92263.63
2022-08-16T15:01:09.715Z,92266.06
2022-08-16T15:03:44.454Z,92265.13
2022-08-16T15:06:16.277Z,92265.13
2022-08-16T15:08:46.868Z,92261.06
2022-08-16T15:11:16.843Z,92267.13
2022-08-16T15:13:49.430Z,92261.63
2022-08-16T15:16:21.606Z,92266.19
2022-08-16T15:19:00.051Z,92254.66
2022-08-16T15:21:31.547Z,92253.59
2022-08-16T15:24:02.449Z,92266.19
2022-08-16T15:26:45.303Z,92263.25
2022-08-16T15:29:19.267Z,92270.38
2022-08-16T15:31:49.466Z,92269.81
2022-08-16T15:34:32.021Z,92276.56
2022-08-16T15:37:03.182Z,92281.38
2022-08-16T15:39:39.401Z,92272.03
2022-08-16T15:42:15.631Z,92271.53
2022-08-16T15:44:59.152Z,92266.72
2022-08-16T15:47:29.244Z,92261.56
2022-08-16T15:49:59.584Z,92275.19
2022-08-16T15:53:41.948Z,92263.53
2022-08-16T15:56:13.385Z,92268.28
2022-08-16T15:58:43.911Z,92276.00
2022-08-16T16:01:21.764Z,92270.03
2022-08-16T16:03:53.985Z,92275.63
2022-08-16T16:06:28.825Z,92281.50
2022-08-16T16:09:00.706Z,92283.59
2022-08-16T16:11:31.237Z,92280.53
2022-08-16T16:14:01.664Z,92286.34
2022-08-16T16:16:36.290Z,92277.66
2022-08-16T16:19:06.542Z,92277.88
2022-08-16T16:21:37.633Z,92278.78
2022-08-16T16:24:21.544Z,92286.91
2022-08-16T16:26:55.187Z,92294.69
2022-08-16T16:29:26.342Z,92286.81
2022-08-16T16:31:59.490Z,92292.13
2022-08-16T16:34:32.137Z,92296.59
2022-08-16T16:37:03.562Z,92293.28
2022-08-16T16:39:35.996Z,92301.84
2022-08-16T16:42:06.422Z,92308.97
2022-08-16T16:44:40.984Z,92297.47
2022-08-16T16:47:21.201Z,92298.53
2022-08-16T16:49:51.245Z,92300.09
2022-08-16T16:52:43.367Z,92296.91
2022-08-16T16:55:16.903Z,92306.84
2022-08-16T16:58:04.021Z,92312.03
2022-08-16T17:00:38.626Z,92306.81
2022-08-16T17:03:17.050Z,92312.84
2022-08-16T17:05:57.348Z,92305.97
2022-08-16T17:08:31.085Z,92304.41
2022-08-16T17:11:03.008Z,92307.69
2022-08-16T17:13:34.810Z,92308.69
2022-08-16T17:16:05.226Z,92312.88
2022-08-16T17:19:16.626Z,92318.50
2022-08-16T17:21:26.301Z,92317.06
2022-08-16T17:24:00.495Z,92318.50
2022-08-16T17:26:34.304Z,92325.22
2022-08-16T17:29:11.124Z,92328.34
2022-08-16T17:34:32.024Z,92337.28
2022-08-16T17:37:08.038Z,92325.34
2022-08-16T17:39:27.057Z,92327.41
2022-08-16T17:39:54.794Z,92342.47
2022-08-16T17:42:31.043Z,92340.22
2022-08-16T17:45:01.570Z,92341.66
2022-08-16T17:47:31.602Z,92351.41
2022-08-16T17:50:02.407Z,92352.03
2022-08-16T17:52:32.584Z,92352.84
2022-08-16T17:55:08.656Z,92359.81
2022-08-16T17:57:40.168Z,92363.84
2022-08-16T18:00:18.280Z,92368.94
2022-08-16T18:02:52.705Z,92361.75
2022-08-16T18:05:23.144Z,92368.47
2022-08-16T18:07:53.927Z,92365.34
2022-08-16T18:10:32.761Z,92369.63
2022-08-16T18:13:05.268Z,92367.69
2022-08-16T18:15:38.162Z,92372.75
2022-08-16T18:18:08.980Z,92376.38
2022-08-16T18:20:56.254Z,92375.63
2022-08-16T18:23:29.128Z,92374.38
2022-08-16T18:26:01.545Z,92380.13
2022-08-16T18:28:35.485Z,92376.84
2022-08-16T18:31:08.006Z,92374.59
2022-08-16T18:33:43.530Z,92376.16
2022-08-16T18:36:20.893Z,92375.13
2022-08-16T18:38:52.288Z,92376.03
2022-08-16T18:41:24.687Z,92382.50
2022-08-16T18:44:25.443Z,92386.44
2022-08-16T18:46:50.997Z,92395.72
2022-08-16T18:49:22.442Z,92406.56
2022-08-16T18:53:41.388Z,92406.19
2022-08-16T18:56:11.724Z,92399.81
2022-08-16T18:58:42.657Z,92405.00
2022-08-16T19:01:12.874Z,92405.81
2022-08-16T19:03:43.165Z,92410.13
2022-08-16T19:06:17.407Z,92412.25
2022-08-16T19:08:49.071Z,92412.25
2022-08-16T19:11:23.749Z,92411.59
2022-08-16T19:13:54.132Z,92409.50
2022-08-16T19:16:24.691Z,92413.53
2022-08-16T19:18:54.683Z,92420.50
2022-08-16T19:21:24.834Z,92423.63
2022-08-16T19:23:56.738Z,92417.59
2022-08-16T19:26:27.946Z,92424.94
2022-08-16T19:28:59.846Z,92430.50
2022-08-16T19:31:37.135Z,92438.38
2022-08-16T19:34:08.714Z,92448.50
2022-08-16T19:36:41.282Z,92434.16
2022-08-16T19:39:17.182Z,92435.59
2022-08-16T19:41:52.105Z,92434.50
2022-08-16T19:44:24.746Z,92437.34
2022-08-16T19:46:55.210Z,92442.53
2022-08-16T19:49:25.374Z,92440.72
2022-08-16T19:51:55.594Z,92438.88
2022-08-16T19:54:27.224Z,92442.72
2022-08-16T19:56:57.387Z,92437.94
2022-08-16T19:59:40.407Z,92445.31
2022-08-16T20:02:35.664Z,92440.41
2022-08-16T20:05:08.405Z,92437.81
2022-08-16T20:07:38.484Z,92445.72
2022-08-16T20:10:11.947Z,92449.47
2022-08-16T20:12:42.003Z,92446.41
2022-08-16T20:15:16.567Z,92446.53
2022-08-16T20:17:48.695Z,92450.19
2022-08-16T20:20:23.348Z,92450.53
2022-08-16T20:22:57.944Z,92454.19
2022-08-16T20:25:33.411Z,92456.53
2022-08-16T20:28:11.543Z,92449.66
2022-08-16T20:31:02.767Z,92456.66
2022-08-16T20:33:32.832Z,92449.44
2022-08-16T20:36:02.855Z,92447.66
2022-08-16T20:38:35.724Z,92453.00
2022-08-16T20:41:07.484Z,92451.88
2022-08-16T20:43:37.836Z,92461.88
2022-08-16T20:46:08.430Z,92461.91
2022-08-16T20:48:38.486Z,92459.47
2022-08-16T20:51:10.918Z,92451.22
2022-08-16T20:53:41.865Z,92455.34
2022-08-16T20:56:14.309Z,92456.19
2022-08-16T20:58:44.464Z,92462.28
2022-08-16T21:01:14.448Z,92462.28
2022-08-16T21:03:45.031Z,92458.81
2022-08-16T21:06:16.512Z,92462.66
2022-08-16T21:08:51.636Z,92468.63
2022-08-16T21:11:28.491Z,92467.13
2022-08-16T21:14:00.781Z,92464.06
2022-08-16T21:16:32.607Z,92459.94
2022-08-16T21:19:02.949Z,92462.09
2022-08-16T21:21:33.758Z,92470.19
2022-08-16T21:24:04.939Z,92469.56
2022-08-16T21:26:39.039Z,92472.84
2022-08-16T21:29:14.207Z,92471.53
2022-08-16T21:31:47.455Z,92471.38
2022-08-16T21:34:17.716Z,92472.72
2022-08-16T21:36:49.111Z,92471.56
2022-08-16T21:39:19.610Z,92465.28
2022-08-16T21:41:51.356Z,92466.25
2022-08-16T21:44:21.586Z,92467.44
2022-08-16T21:46:52.134Z,92468.25
2022-08-16T21:49:22.503Z,92463.31
2022-08-16T21:53:42.158Z,92464.47
2022-08-16T21:56:16.774Z,92468.44
2022-08-16T21:58:52.976Z,92464.97
2022-08-16T22:01:24.842Z,92469.44
2022-08-16T22:04:01.619Z,92464.31
2022-08-16T22:06:48.288Z,92475.22
2022-08-16T22:09:24.603Z,92473.91
2022-08-16T22:11:54.630Z,92478.00
2022-08-16T22:14:24.765Z,92478.19
2022-08-16T22:16:55.971Z,92475.69
2022-08-16T22:19:26.665Z,92479.66
2022-08-16T22:21:57.070Z,92477.53
2022-08-16T22:24:28.605Z,92478.84
2022-08-16T22:26:58.609Z,92482.94
2022-08-16T22:29:28.761Z,92473.06
2022-08-16T22:31:59.068Z,92476.03
2022-08-16T22:34:29.148Z,92468.94
2022-08-16T22:36:59.356Z,92471.41
2022-08-16T22:39:31.866Z,92471.75
2022-08-16T22:42:08.936Z,92463.50
2022-08-16T22:44:45.663Z,92461.38
2022-08-16T22:47:16.346Z,92454.25
2022-08-16T22:49:48.328Z,92454.75
2022-08-16T22:52:40.983Z,92454.91
2022-08-16T22:55:11.224Z,92458.03
2022-08-16T22:57:41.147Z,92451.78
2022-08-16T23:00:16.191Z,92455.06
2022-08-16T23:03:03.195Z,92450.59
2022-08-16T23:05:39.266Z,92456.22
2022-08-16T23:08:12.723Z,92453.75
2022-08-16T23:10:45.468Z,92454.88
2022-08-16T23:13:17.428Z,92452.09
2022-08-16T23:15:52.142Z,92447.66
2022-08-16T23:18:26.816Z,92453.91
2022-08-16T23:21:00.694Z,92451.28
2022-08-16T23:23:31.713Z,92456.56
2022-08-16T23:26:44.188Z,92451.78
2022-08-16T23:28:53.509Z,92446.66
2022-08-16T23:31:24.075Z,92439.56
2022-08-16T23:33:54.206Z,92446.50
2022-08-16T23:36:24.283Z,92446.50
2022-08-16T23:38:54.353Z,92448.16
2022-08-16T23:41:25.927Z,92439.25
2022-08-16T23:43:55.906Z,92451.59
2022-08-16T23:46:25.985Z,92442.53
2022-08-16T23:50:00.233Z,92436.59
2022-08-16T23:51:46.083Z,92428.84
2022-08-16T23:54:16.006Z,92430.81
2022-08-16T23:56:47.857Z,92428.34
2022-08-16T23:59:18.064Z,92428.34
